Skip Navigation Links
NOAA logo - Click to go to the NOAA homepage
NOAA's National Weather Service
Alaska Aviation Weather Unit
  NWS logo - Click to go to the NWS homepage
Left Navbar Graphic     23 AKDT = 07 GMT

   
NOAA is celebrating 200 years of science, service, and stewardship. Visit the NOAA 200th celebration Web site to learn more.
USA.gov is the U.S. Government's official Web portal to all Federal, state and local government Web resources and services.
Facebook
NWS on Facebook

Important Change Regarding the AAWU Web Presence

 

Over the last several months, the AAWU has been working to navigate its webpages to a nationally supported server. Security, as well as other needs, have necessitated the change.  In the process, we have made an effort to enhance the functionality of our website, as well as some of our products. As of June 20, 2017, aawu.arh.noaa.gov will be discontinued. The new AAWU web address is weather.gov/aawu. It is now live and will run in-parallel with the old site until it is discontinued. Please send any feedback or questions regarding the new webpages to nws.ar.aawu.webauthors@noaa.gov.  Thank you for your patience during this time of transition.
AAWU Home :: Display TAF Add Bookmark
TAF PABT 240532Z 2406/2506 25008KT P6SM SCT045 BKN060
     FM241900 06011G18KT P6SM BKN120
     FM242100 11011G17KT P6SM OVC050
     FM242300 13010G17KT P6SM SCT025 OVC050
     FM250300 15006KT 2SM -RA BR OVC015=

METAR PABT 240153Z 29010KT 10SM -RA FEW030 SCT048 OVC055 11/02 A2983 RMK AO2 RAB06 SLP112 P0000 T01060022= METAR PABT 240253Z 25010G18KT 10SM FEW030 SCT048 OVC055 12/01 A2983 RMK AO2 RAE01 SLP111 SHRA VC N 60000 P0000 60000 T01170011 53003= METAR PABT 240353Z 26010KT 10SM FEW030 FEW047 SCT065 13/01 A2983 RMK AO2 SLP110 T01280006= METAR PABT 240453Z 25008KT 10SM SCT047 BKN055 11/M01 A2984 RMK AO2 SLP112 T01111006= METAR PABT 240553Z 00000KT 10SM SCT045 BKN055 11/01 A2984 RMK AO2 SLP112 60000 60000 T01110006 10128 20094 53001=
 Alaska TAF Map

NOAA's National Weather Service
Alaska Aviation Weather Unit
6930 Sand Lake Road
Anchorage, AK 99502-1845
Disclaimer
Credits
Glossary
Privacy Policy
About Us
Career Opportunities
Contact AAWU Internet Services Site last modified: April, 17th 2012